Time;durP1;ratioP1;P1;durP2;ratioP2;P2;SDS_P1;SDS_P2;PMS_P1;PMS_P2;Temp;Humidity;BMP_temperature;BMP_pressure;BME280_temperature;BME280_humidity;BME280_pressure;Samples;Min_cycle;Max_cycle;Signal;HPM_P1;HPM_P2
2022/11/18 00:01:12;;;;;;;11.70;6.20;;;;;;;-0.26;100.00;98765.37;1661710;86;21082;-74
2022/11/18 00:03:39;;;;;;;13.50;6.60;;;;;;;-0.28;100.00;98779.27;1661253;86;21158;-75
2022/11/18 00:06:15;;;;;;;11.27;5.80;;;;;;;-0.33;100.00;98793.44;1661730;86;21056;-73
2022/11/18 00:08:42;;;;;;;12.93;6.30;;;;;;;-0.38;100.00;98804.45;1652994;86;21034;-74
2022/11/18 00:14:17;;;;;;;10.00;5.73;;;;;;;-0.42;100.00;98826.94;1640378;87;21030;-75
2022/11/18 00:16:25;;;;;;;11.20;5.53;;;;;;;-0.48;100.00;98833.62;1604546;89;21056;-74
2022/11/18 00:18:52;;;;;;;11.53;6.17;;;;;;;-0.50;100.00;98842.17;1604380;89;21058;-74
2022/11/18 00:21:19;;;;;;;11.77;5.97;;;;;;;-0.50;100.00;98855.95;1604652;89;21062;-73
2022/11/18 00:23:47;;;;;;;13.10;6.47;;;;;;;-0.53;100.00;98859.72;1604354;89;21101;-74
2022/11/18 00:26:14;;;;;;;11.23;5.80;;;;;;;-0.54;100.00;98863.33;1604322;89;21102;-74
2022/11/18 00:28:41;;;;;;;10.47;5.47;;;;;;;-0.55;100.00;98856.82;1604484;89;21029;-74
2022/11/18 00:31:11;;;;;;;10.70;6.00;;;;;;;-0.58;100.00;98857.44;1604122;89;21090;-74
2022/11/18 00:33:38;;;;;;;10.33;5.43;;;;;;;-0.58;100.00;98862.75;1604513;89;21034;-74
2022/11/18 00:36:07;;;;;;;15.87;7.30;;;;;;;-0.59;100.00;98862.88;1604320;89;21077;-74
2022/11/18 00:38:34;;;;;;;17.27;8.27;;;;;;;-0.61;100.00;98866.98;1604516;89;20990;-74
2022/11/18 00:41:03;;;;;;;20.47;9.33;;;;;;;-0.60;100.00;98873.16;1604612;89;21078;-74
2022/11/18 00:43:30;;;;;;;21.80;9.90;;;;;;;-0.59;100.00;98881.46;1604357;89;21042;-73
2022/11/18 00:45:56;;;;;;;20.77;9.43;;;;;;;-0.58;100.00;98885.81;1604511;89;21113;-74
2022/11/18 00:48:25;;;;;;;18.60;8.27;;;;;;;-0.62;100.00;98879.05;1604557;89;21484;-73
2022/11/18 00:50:54;;;;;;;17.10;8.17;;;;;;;-0.65;100.00;98876.68;1604187;89;21058;-73
2022/11/18 00:53:22;;;;;;;15.83;7.50;;;;;;;-0.66;100.00;98861.21;1604464;89;20978;-73
2022/11/18 00:55:49;;;;;;;15.83;6.97;;;;;;;-0.67;100.00;98858.72;1604651;89;21034;-72
2022/11/18 00:58:16;;;;;;;14.43;7.00;;;;;;;-0.68;100.00;98871.61;1605026;89;21042;-72
2022/11/18 01:00:47;;;;;;;14.57;6.93;;;;;;;-0.66;100.00;98886.44;1605061;89;21018;-74
2022/11/18 01:03:14;;;;;;;12.47;6.53;;;;;;;-0.64;100.00;98893.81;1604413;89;21037;-74
2022/11/18 01:05:40;;;;;;;15.53;6.53;;;;;;;-0.63;100.00;98884.86;1604447;89;21054;-73
2022/11/18 01:08:10;;;;;;;12.67;6.40;;;;;;;-0.66;100.00;98874.98;1604607;89;21105;-75
2022/11/18 01:10:37;;;;;;;10.50;5.47;;;;;;;-0.68;100.00;98879.58;1631522;87;21042;-73
2022/11/18 01:13:20;;;;;;;14.40;6.80;;;;;;;-0.68;100.00;98882.23;1641766;87;21079;-73
2022/11/18 01:15:52;;;;;;;14.60;7.20;;;;;;;-0.70;100.00;98891.66;1641706;87;21055;-74
2022/11/18 01:18:24;;;;;;;13.78;6.87;;;;;;;-0.73;100.00;98892.39;1641869;86;21102;-73
2022/11/18 01:20:51;;;;;;;13.33;6.30;;;;;;;-0.75;100.00;98885.05;1560866;91;21050;-73
2022/11/18 01:23:19;;;;;;;14.00;6.67;;;;;;;-0.78;100.00;98879.02;1560816;92;21082;-73
2022/11/18 01:25:48;;;;;;;13.60;6.10;;;;;;;-0.78;100.00;98871.06;1560637;91;21082;-72
2022/11/18 01:28:16;;;;;;;14.30;6.93;;;;;;;-0.81;100.00;98866.50;1560883;91;21606;-73
2022/11/18 01:30:43;;;;;;;13.33;6.63;;;;;;;-0.82;100.00;98877.58;1560907;90;21596;-73
2022/11/18 01:33:09;;;;;;;16.60;7.23;;;;;;;-0.83;100.00;98889.67;1560742;92;21038;-74
2022/11/18 01:35:39;;;;;;;14.07;6.97;;;;;;;-0.87;100.00;98892.20;1560614;92;21074;-72
2022/11/18 01:38:06;;;;;;;13.07;6.23;;;;;;;-0.93;100.00;98886.92;1509376;95;21090;-73
2022/11/18 01:40:33;;;;;;;11.93;6.23;;;;;;;-0.93;100.00;98888.73;1509331;95;21158;-72
2022/11/18 01:43:01;;;;;;;14.37;6.97;;;;;;;-0.93;100.00;98884.76;1509793;95;21093;-73
2022/11/18 01:45:39;;;;;;;15.50;7.50;;;;;;;-0.93;100.00;98885.59;1509349;95;21162;-73
2022/11/18 01:48:14;;;;;;;14.60;7.50;;;;;;;-0.95;100.00;98894.17;1509513;95;21583;-73
2022/11/18 01:50:45;;;;;;;12.00;6.33;;;;;;;-0.99;100.00;98886.11;1487225;96;21659;-73
2022/11/18 01:53:17;;;;;;;16.13;7.23;;;;;;;-1.01;100.00;98885.37;1473652;97;21172;-72
2022/11/18 01:55:47;;;;;;;14.95;6.28;;;;;;;-1.02;100.00;98889.84;1473868;97;21176;-73
2022/11/18 01:58:30;;;;;;;14.83;5.90;;;;;;;-1.04;100.00;98890.45;1473973;96;21133;-72
2022/11/18 02:00:57;;;;;;;13.90;6.63;;;;;;;-1.04;100.00;98896.25;1473827;97;21165;-72
2022/11/18 02:03:26;;;;;;;12.67;6.43;;;;;;;-1.05;100.00;98896.72;1473773;97;21607;-74
2022/11/18 02:05:53;;;;;;;13.97;7.27;;;;;;;-1.08;100.00;98903.63;1473934;97;21585;-74
2022/11/18 02:08:19;;;;;;;15.63;7.20;;;;;;;-1.10;100.00;98917.96;1473753;97;21072;-73
2022/11/18 02:10:46;;;;;;;13.30;7.00;;;;;;;-1.14;100.00;98943.90;1470392;98;21613;-72
2022/11/18 02:13:13;;;;;;;14.90;7.00;;;;;;;-1.19;100.00;98946.08;1470430;96;21112;-73
2022/11/18 02:16:04;;;;;;;15.17;6.97;;;;;;;-1.21;100.00;98940.05;1470501;98;21555;-73
2022/11/18 02:18:52;;;;;;;14.63;7.00;;;;;;;-1.23;100.00;98936.19;1493909;96;21095;-73
2022/11/18 02:22:07;;;;;;;15.83;7.20;;;;;;;-1.26;100.00;98935.11;1497949;96;21593;-74
2022/11/18 02:25:01;;;;;;;16.37;7.80;;;;;;;-1.26;100.00;98935.11;1471159;97;21147;-73
2022/11/18 02:27:50;;;;;;;14.90;6.62;;;;;;;-1.27;100.00;98937.41;1461874;95;21080;-72
2022/11/18 02:30:17;;;;;;;13.20;6.83;;;;;;;-1.29;100.00;98949.96;1409493;102;21177;-73
2022/11/18 07:01:38;;;;;;;85.80;41.40;;;;;;;-1.23;100.00;99433.58;1661155;85;21496;-76
2022/11/18 07:04:05;;;;;;;33.27;20.23;;;;;;;-1.23;100.00;99428.76;1664172;85;21077;-72
2022/11/18 07:06:34;;;;;;;22.27;11.37;;;;;;;-1.19;100.00;99447.01;1691627;85;21046;-73
2022/11/18 07:09:02;;;;;;;22.43;11.47;;;;;;;-1.16;100.00;99449.91;1692183;85;21033;-71
2022/11/18 07:11:37;;;;;;;20.80;10.30;;;;;;;-1.16;100.00;99448.09;1664279;86;21181;-79
2022/11/18 07:14:09;;;;;;;17.53;8.67;;;;;;;-1.16;100.00;99448.09;1635762;87;21104;-75
2022/11/18 07:16:39;;;;;;;37.70;21.37;;;;;;;-1.14;100.00;99444.00;1684069;85;21082;-74
2022/11/18 07:19:10;;;;;;;39.43;20.83;;;;;;;-1.13;100.00;99441.73;1686244;85;21033;-71
2022/11/18 07:21:39;;;;;;;33.80;18.35;;;;;;;-1.06;100.00;99444.77;1668827;86;21145;-74
2022/11/18 07:24:07;;;;;;;38.50;18.00;;;;;;;-1.04;100.00;99440.22;1668822;86;21065;-72
2022/11/18 07:26:35;;;;;;;23.53;12.63;;;;;;;-1.01;100.00;99448.80;1669561;86;21348;-74
2022/11/18 07:29:02;;;;;;;20.50;9.83;;;;;;;-0.96;100.00;99452.43;1670594;86;21054;-73
2022/11/18 07:31:31;;;;;;;36.83;18.53;;;;;;;-0.89;100.00;99452.34;1670041;86;21117;-75
2022/11/18 07:33:58;;;;;;;25.77;12.10;;;;;;;-0.88;100.00;99446.58;1669208;86;21070;-75
2022/11/18 07:36:27;;;;;;;33.40;17.33;;;;;;;-0.87;100.00;99458.88;1669057;86;21088;-74
2022/11/18 07:38:54;;;;;;;22.00;10.80;;;;;;;-0.84;100.00;99459.49;1668971;86;21109;-76
2022/11/18 07:41:24;;;;;;;33.60;14.87;;;;;;;-0.81;100.00;99457.11;1668991;86;21572;-73
2022/11/18 07:43:51;;;;;;;27.50;12.10;;;;;;;-0.80;100.00;99450.83;1668886;86;21093;-72
2022/11/18 07:46:28;;;;;;;24.63;11.03;;;;;;;-0.75;100.00;99451.83;1669233;86;21499;-71
2022/11/18 07:48:56;;;;;;;32.83;14.77;;;;;;;-0.70;100.00;99447.02;1668642;86;21141;-73
2022/11/18 07:51:26;;;;;;;29.43;15.87;;;;;;;-0.63;100.00;99459.72;1669186;86;21014;-72
2022/11/18 07:53:52;;;;;;;32.27;19.03;;;;;;;-0.60;100.00;99463.48;1669235;86;21572;-72
2022/11/18 07:56:19;;;;;;;24.43;12.33;;;;;;;-0.55;100.00;99455.64;1661391;86;21570;-74
2022/11/18 07:58:46;;;;;;;19.90;9.60;;;;;;;-0.52;100.00;99459.41;1644638;86;21555;-72
2022/11/18 08:01:15;;;;;;;28.60;13.60;;;;;;;-0.55;100.00;99460.95;1642773;86;21050;-72
2022/11/18 08:03:42;;;;;;;24.43;11.53;;;;;;;-0.58;100.00;99466.03;1659909;85;21094;-73
2022/11/18 08:06:13;;;;;;;30.00;13.93;;;;;;;-0.63;100.00;99470.83;1672266;86;21081;-72
2022/11/18 08:08:41;;;;;;;28.27;12.07;;;;;;;-0.66;100.00;99483.84;1645453;87;21106;-73
2022/11/18 08:11:11;;;;;;;23.90;10.90;;;;;;;-0.68;100.00;99481.78;1687225;85;21543;-80
2022/11/18 08:13:39;;;;;;;20.17;8.77;;;;;;;-0.69;100.00;99481.43;1671874;85;21036;-73
2022/11/18 08:16:13;;;;;;;20.97;10.03;;;;;;;-0.69;100.00;99473.47;1630893;87;21086;-73
2022/11/18 08:18:40;;;;;;;24.13;10.47;;;;;;;-0.60;100.00;99479.91;1605172;88;21101;-73
2022/11/18 08:21:08;;;;;;;41.57;22.13;;;;;;;-0.53;100.00;99482.93;1601695;88;21168;-71
2022/11/18 08:23:35;;;;;;;48.77;26.43;;;;;;;-0.47;100.00;99482.00;1597672;90;21466;-72
2022/11/18 08:26:10;;;;;;;39.83;22.73;;;;;;;-0.40;100.00;99476.59;1597159;90;21585;-74
2022/11/18 08:28:38;;;;;;;42.63;20.83;;;;;;;-0.33;100.00;99490.27;1550986;92;21142;-72
2022/11/18 08:31:25;;;;;;;33.30;17.10;;;;;;;-0.29;100.00;99490.89;1550745;92;21034;-74
2022/11/18 08:33:56;;;;;;;35.63;19.10;;;;;;;-0.27;100.00;99492.94;1553659;92;21046;-73
2022/11/18 08:36:25;;;;;;;30.47;17.43;;;;;;;-0.23;100.00;99481.11;1531599;94;21113;-75
2022/11/18 08:38:55;;;;;;;26.97;14.30;;;;;;;-0.19;100.00;99485.25;1557254;92;21165;-74
2022/11/18 08:41:41;;;;;;;33.37;16.63;;;;;;;-0.13;100.00;99477.30;1556803;92;21162;-74
2022/11/18 08:44:11;;;;;;;58.67;28.90;;;;;;;-0.06;100.00;99482.50;1531430;94;21067;-73
2022/11/18 08:46:38;;;;;;;31.97;16.20;;;;;;;-0.07;100.00;99481.66;1531316;93;21118;-71
2022/11/18 08:49:07;;;;;;;28.17;13.57;;;;;;;-0.16;100.00;99477.06;1531368;94;21178;-73
2022/11/18 08:51:35;;;;;;;26.60;12.87;;;;;;;-0.28;100.00;99487.28;1530609;93;21109;-75
2022/11/18 08:54:02;;;;;;;21.17;10.47;;;;;;;-0.37;100.00;99479.52;1531427;93;21066;-74
2022/11/18 08:56:30;;;;;;;17.43;8.57;;;;;;;-0.33;100.00;99474.83;1531655;94;21174;-75
2022/11/18 08:58:57;;;;;;;16.07;8.20;;;;;;;-0.37;100.00;99474.66;1532387;93;21107;-72
2022/11/18 09:01:26;;;;;;;16.77;7.90;;;;;;;-0.41;100.00;99466.08;1536762;91;21124;-74
2022/11/18 09:03:52;;;;;;;18.80;8.73;;;;;;;-0.37;100.00;99474.66;1553878;91;21096;-73
2022/11/18 09:06:23;;;;;;;18.53;8.67;;;;;;;-0.34;100.00;99468.64;1556485;92;21047;-75
2022/11/18 09:08:51;;;;;;;17.63;8.20;;;;;;;-0.24;100.00;99468.81;1553361;92;21040;-73
2022/11/18 09:11:22;;;;;;;17.17;8.07;;;;;;;-0.21;100.00;99474.73;1577619;91;21090;-74
2022/11/18 09:13:54;;;;;;;23.97;12.07;;;;;;;-0.20;100.00;99471.59;1584302;89;21034;-74
2022/11/18 09:16:24;;;;;;;22.93;10.43;;;;;;;-0.16;100.00;99464.23;1609899;88;21119;-73
2022/11/18 09:18:52;;;;;;;25.60;12.40;;;;;;;-0.13;100.00;99458.69;1581582;89;21106;-75
2022/11/18 09:21:18;;;;;;;16.30;8.27;;;;;;;-0.15;100.00;99475.23;1583146;89;21480;-75
2022/11/18 09:23:46;;;;;;;27.07;14.57;;;;;;;-0.19;100.00;99470.64;1587085;89;21097;-74
2022/11/18 09:26:15;;;;;;;23.33;11.97;;;;;;;-0.21;100.00;99471.23;1566790;91;21052;-75
2022/11/18 09:28:43;;;;;;;18.70;9.87;;;;;;;-0.21;100.00;99461.45;1533585;92;21168;-74
2022/11/18 09:31:12;;;;;;;20.43;11.23;;;;;;;-0.21;100.00;99465.44;1546657;92;21063;-75
2022/11/18 09:33:41;;;;;;;20.00;9.60;;;;;;;-0.22;100.00;99469.53;1558466;92;21069;-75
2022/11/18 09:36:21;;;;;;;16.63;8.30;;;;;;;-0.20;100.00;99476.90;1541003;92;21538;-73
2022/11/18 09:38:48;;;;;;;17.00;8.10;;;;;;;-0.23;100.00;99470.02;1537520;89;21053;-71
2022/11/18 09:41:38;;;;;;;19.37;9.90;;;;;;;-0.26;100.00;99476.05;1597413;89;21047;-77
2022/11/18 09:44:22;;;;;;;14.57;7.63;;;;;;;-0.32;100.00;99479.16;1594153;89;21110;-79
2022/11/18 09:47:08;;;;;;;14.07;7.30;;;;;;;-0.40;100.00;99467.30;1589183;89;22409;-79
2022/11/18 09:49:41;;;;;;;13.33;6.43;;;;;;;-0.45;100.00;99466.80;1570812;90;21076;-82
2022/11/18 09:52:18;;;;;;;15.87;6.70;;;;;;;-0.40;100.00;99465.97;1576015;90;21185;-79
2022/11/18 09:54:45;;;;;;;15.03;7.17;;;;;;;-0.36;100.00;99479.03;1535870;92;21130;-77
2022/11/18 09:57:21;;;;;;;12.37;6.53;;;;;;;-0.39;100.00;99489.39;1550005;92;21073;-72
2022/11/18 09:59:47;;;;;;;12.37;6.57;;;;;;;-0.46;100.00;99489.48;1505946;93;21641;-72
2022/11/18 10:02:39;;;;;;;15.17;7.53;;;;;;;-0.46;100.00;99494.33;1514548;94;21141;-73
2022/11/18 10:05:19;;;;;;;14.03;7.30;;;;;;;-0.41;100.00;99498.83;1513276;94;21150;-72
2022/11/18 10:08:06;;;;;;;12.40;6.93;;;;;;;-0.44;100.00;99508.34;1542246;93;21101;-72
2022/11/18 10:11:06;;;;;;;11.77;6.30;;;;;;;-0.49;100.00;99499.86;1547857;93;21096;-72
2022/11/18 10:14:04;;;;;;;13.67;6.87;;;;;;;-0.46;100.00;99500.97;1548162;92;21089;-72
2022/11/18 10:17:18;;;;;;;12.33;6.43;;;;;;;-0.47;100.00;99497.94;1573197;91;21124;-74
2022/11/18 10:20:12;;;;;;;11.03;5.73;;;;;;;-0.41;100.00;99499.28;1581759;87;21109;-79
2022/11/18 10:22:55;;;;;;;11.33;6.07;;;;;;;-0.34;100.00;99503.66;1556655;92;21567;-79
2022/11/18 10:25:22;;;;;;;14.77;6.87;;;;;;;-0.28;100.00;99517.84;1499812;93;21070;-78
2022/11/18 10:27:49;;;;;;;12.77;6.23;;;;;;;-0.29;100.00;99534.73;1530363;94;21082;-78
2022/11/18 10:30:26;;;;;;;12.83;5.97;;;;;;;-0.29;100.00;99538.71;1514338;95;21105;-77
2022/11/18 10:33:00;;;;;;;26.20;11.20;;;;;;;-0.32;100.00;99531.83;1529439;94;21224;-74
2022/11/18 10:35:37;;;;;;;12.33;6.50;;;;;;;-0.39;100.00;99536.75;1529826;94;21138;-76
2022/11/18 10:38:18;;;;;;;14.00;6.60;;;;;;;-0.43;100.00;99548.53;1509870;95;21133;-76
2022/11/18 10:41:06;;;;;;;12.70;6.10;;;;;;;-0.46;100.00;99538.63;1528391;94;21081;-75
2022/11/18 10:43:54;;;;;;;10.37;5.63;;;;;;;-0.47;100.00;99542.25;1525879;94;21103;-74
2022/11/18 10:46:37;;;;;;;21.83;8.93;;;;;;;-0.48;100.00;99547.19;1525788;94;21076;-73
2022/11/18 10:49:16;;;;;;;25.43;9.30;;;;;;;-0.45;100.00;99546.48;1525620;94;21606;-73
2022/11/18 10:51:47;;;;;;;17.57;7.30;;;;;;;-0.46;100.00;99546.13;1528741;92;21116;-73
2022/11/18 17:12:39;;;;;;;16.77;7.57;;;;;;;-0.06;100.00;99874.56;1666230;85;21172;-79
2022/11/18 17:15:06;;;;;;;14.80;7.80;;;;;;;-0.09;100.00;99874.31;1637540;88;21039;-80
2022/11/18 17:17:35;;;;;;;16.23;7.50;;;;;;;-0.11;100.00;99879.34;1637498;87;21059;-79
2022/11/18 17:20:02;;;;;;;19.17;9.33;;;;;;;-0.10;100.00;99899.17;1637661;88;21564;-81
2022/11/18 17:22:29;;;;;;;16.03;7.73;;;;;;;-0.07;100.00;99915.38;1624457;86;21078;-81
2022/11/18 17:24:56;;;;;;;14.63;7.63;;;;;;;-0.06;100.00;99899.81;1637378;88;21095;-80
2022/11/18 17:27:23;;;;;;;16.77;8.20;;;;;;;-0.08;100.00;99921.66;1637393;88;21011;-80
2022/11/18 17:29:50;;;;;;;17.50;8.70;;;;;;;-0.06;100.00;99934.37;1646717;87;21600;-79
2022/11/18 17:32:18;;;;;;;16.50;8.10;;;;;;;-0.04;100.00;99945.25;1646678;85;21023;-80
2022/11/18 17:34:45;;;;;;;19.70;9.27;;;;;;;-0.02;100.00;99955.78;1647012;87;21035;-78
2022/11/18 17:37:14;;;;;;;16.53;7.93;;;;;;;0.03;100.00;99962.13;1646918;87;21107;-78
2022/11/18 17:39:41;;;;;;;16.97;7.97;;;;;;;0.05;100.00;99953.56;1647071;87;21050;-80
2022/11/18 17:42:16;;;;;;;17.50;8.43;;;;;;;0.05;100.00;99952.23;1646709;86;21480;-79
2022/11/18 17:44:43;;;;;;;16.47;8.17;;;;;;;0.05;100.00;99954.89;1646778;87;21070;-77
2022/11/18 17:47:12;;;;;;;16.90;7.93;;;;;;;0.03;100.00;99963.45;1647182;87;21043;-78
2022/11/18 17:49:39;;;;;;;18.57;7.97;;;;;;;0.04;100.00;99975.31;1647262;87;21055;-78
2022/11/18 17:52:06;;;;;;;18.57;8.23;;;;;;;0.03;100.00;99976.27;1648745;87;21118;-77
2022/11/18 17:54:34;;;;;;;21.70;9.27;;;;;;;0.05;100.00;99989.45;1647900;87;21045;-79
2022/11/18 17:57:02;;;;;;;21.57;9.40;;;;;;;0.06;100.00;99993.83;1646747;87;21067;-80
2022/11/18 17:59:29;;;;;;;27.63;12.03;;;;;;;0.09;100.00;99998.91;1646877;87;21106;-78
2022/11/18 18:01:57;;;;;;;20.83;9.53;;;;;;;0.09;100.00;99990.94;1646800;85;21532;-78
2022/11/18 18:04:26;;;;;;;20.87;9.57;;;;;;;0.09;100.00;99989.15;1647091;87;21121;-78
2022/11/18 18:06:54;;;;;;;16.77;8.73;;;;;;;0.10;100.00;100004.61;1646986;86;21547;-79
2022/11/18 18:09:23;;;;;;;15.53;7.87;;;;;;;0.12;100.00;100015.99;1646902;87;21035;-78
2022/11/18 18:11:50;;;;;;;20.97;9.23;;;;;;;0.12;100.00;100012.00;1646839;87;21066;-79
2022/11/18 18:14:17;;;;;;;28.10;12.07;;;;;;;0.13;100.00;100012.39;1654822;86;21126;-79
2022/11/18 18:16:50;;;;;;;21.93;9.80;;;;;;;0.14;100.00;100009.63;1658472;85;21039;-79
2022/11/18 18:19:19;;;;;;;26.03;10.70;;;;;;;0.12;100.00;100011.52;1663832;86;21124;-80
2022/11/18 18:21:47;;;;;;;23.50;9.97;;;;;;;0.13;100.00;100008.41;1663913;85;21106;-79
2022/11/18 18:24:16;;;;;;;24.60;10.73;;;;;;;0.15;100.00;100013.97;1663956;86;21035;-79
2022/11/18 18:26:44;;;;;;;26.07;12.33;;;;;;;0.16;100.00;100006.84;1662809;86;21039;-78
2022/11/18 23:52:41;;;;;;;22.37;10.30;;;;;;;0.76;100.00;100062.55;1750704;81;21043;-76
2022/11/18 23:55:08;;;;;;;26.53;10.83;;;;;;;0.78;100.00;100066.44;1749465;81;21019;-76
2022/11/18 23:57:35;;;;;;;26.47;12.13;;;;;;;0.79;100.00;100079.64;1737456;82;20999;-77
